Culverden, New Zealand
Current Conditions -  °F | °C
As of 12:00 AM on Thursday 29 Jan 2015 (Local Time) from NZCH Reporting Station
Broken Clouds Broken Clouds  
Wind Chill: 64°   Ceiling: 1800
Heat Index: 64°   Visibility: 6mi
Dew Point: 63°   Wind: 9mph
Humidity: 94%   Direction: 60°ENE
Pressure: 30"   Gusts: NA
Location:  42.77°S, 172.86°E
Report Text: NZCH 281200Z AUTO 06008KT 9999 SCT007/// SCT012/// BKN018///18/17 Q1016 TEMPO BKN008
Loading
Personal Weather Stations






























Interactive Weather Map New forecast layout! Learn more

10-Day Weather Forecast

Advertisements
Track Severe Weather on mobile